sensor_id;sensor_type;location;lat;lon;timestamp;temperature;humidity
16655;DHT22;8441;51.344;7.022;2022-08-01T00:01:50;18.90;99.90
16655;DHT22;8441;51.344;7.022;2022-08-01T00:04:19;18.90;99.90
16655;DHT22;8441;51.344;7.022;2022-08-01T00:06:46;18.90;99.90
16655;DHT22;8441;51.344;7.022;2022-08-01T00:09:13;19.00;99.90
16655;DHT22;8441;51.344;7.022;2022-08-01T00:11:40;18.90;99.90
16655;DHT22;8441;51.344;7.022;2022-08-01T00:14:08;18.90;99.90
16655;DHT22;8441;51.344;7.022;2022-08-01T00:16:36;18.90;99.90
16655;DHT22;8441;51.344;7.022;2022-08-01T00:19:03;19.00;99.90
16655;DHT22;8441;51.344;7.022;2022-08-01T00:21:31;19.00;99.90
16655;DHT22;8441;51.344;7.022;2022-08-01T00:23:58;18.90;99.90
16655;DHT22;8441;51.344;7.022;2022-08-01T00:26:25;18.90;99.90
16655;DHT22;8441;51.344;7.022;2022-08-01T00:28:52;18.90;99.90
16655;DHT22;8441;51.344;7.022;2022-08-01T00:31:20;18.90;99.90
16655;DHT22;8441;51.344;7.022;2022-08-01T00:33:47;18.90;99.90
16655;DHT22;8441;51.344;7.022;2022-08-01T00:36:14;18.90;99.90
16655;DHT22;8441;51.344;7.022;2022-08-01T00:38:42;18.80;99.90
16655;DHT22;8441;51.344;7.022;2022-08-01T00:41:09;18.80;99.90
16655;DHT22;8441;51.344;7.022;2022-08-01T00:43:36;18.70;99.90
16655;DHT22;8441;51.344;7.022;2022-08-01T00:46:03;18.80;99.90
16655;DHT22;8441;51.344;7.022;2022-08-01T00:48:30;18.70;99.90
16655;DHT22;8441;51.344;7.022;2022-08-01T00:50:58;18.70;99.90
16655;DHT22;8441;51.344;7.022;2022-08-01T00:53:25;18.70;99.90
16655;DHT22;8441;51.344;7.022;2022-08-01T00:55:53;18.70;99.90
16655;DHT22;8441;51.344;7.022;2022-08-01T00:58:20;18.70;99.90
16655;DHT22;8441;51.344;7.022;2022-08-01T01:00:49;18.70;99.90
16655;DHT22;8441;51.344;7.022;2022-08-01T01:03:16;18.70;99.90
16655;DHT22;8441;51.344;7.022;2022-08-01T01:05:50;18.70;99.90
16655;DHT22;8441;51.344;7.022;2022-08-01T01:08:26;18.70;99.90
16655;DHT22;8441;51.344;7.022;2022-08-01T01:11:03;18.80;99.90
16655;DHT22;8441;51.344;7.022;2022-08-01T01:13:35;18.70;99.90
16655;DHT22;8441;51.344;7.022;2022-08-01T01:16:08;18.70;99.90
16655;DHT22;8441;51.344;7.022;2022-08-01T01:18:39;18.70;99.90
16655;DHT22;8441;51.344;7.022;2022-08-01T01:24:14;18.70;99.90
16655;DHT22;8441;51.344;7.022;2022-08-01T01:26:52;18.70;99.90
16655;DHT22;8441;51.344;7.022;2022-08-01T01:29:27;18.80;99.90
16655;DHT22;8441;51.344;7.022;2022-08-01T01:31:58;18.80;99.90
16655;DHT22;8441;51.344;7.022;2022-08-01T01:34:30;18.80;99.90
16655;DHT22;8441;51.344;7.022;2022-08-01T01:37:01;18.80;99.90
16655;DHT22;8441;51.344;7.022;2022-08-01T01:39:31;18.80;99.90
16655;DHT22;8441;51.344;7.022;2022-08-01T01:42:00;18.80;99.90
16655;DHT22;8441;51.344;7.022;2022-08-01T01:44:29;18.80;99.90
16655;DHT22;8441;51.344;7.022;2022-08-01T01:46:57;18.80;99.90
16655;DHT22;8441;51.344;7.022;2022-08-01T01:49:27;18.80;99.90
16655;DHT22;8441;51.344;7.022;2022-08-01T01:51:56;18.80;99.90
16655;DHT22;8441;51.344;7.022;2022-08-01T01:54:28;18.80;99.90
16655;DHT22;8441;51.344;7.022;2022-08-01T01:56:58;18.80;99.90
16655;DHT22;8441;51.344;7.022;2022-08-01T01:59:30;18.80;99.90
16655;DHT22;8441;51.344;7.022;2022-08-01T02:02:01;18.80;99.90
16655;DHT22;8441;51.344;7.022;2022-08-01T02:04:30;18.80;99.90
16655;DHT22;8441;51.344;7.022;2022-08-01T02:06:59;18.80;99.90
16655;DHT22;8441;51.344;7.022;2022-08-01T02:09:28;18.80;99.90
16655;DHT22;8441;51.344;7.022;2022-08-01T02:11:57;18.80;99.90
16655;DHT22;8441;51.344;7.022;2022-08-01T02:14:25;18.80;99.90
16655;DHT22;8441;51.344;7.022;2022-08-01T02:16:57;18.80;99.90
16655;DHT22;8441;51.344;7.022;2022-08-01T02:19:26;18.80;99.90
16655;DHT22;8441;51.344;7.022;2022-08-01T02:21:57;18.80;99.90
16655;DHT22;8441;51.344;7.022;2022-08-01T02:24:31;18.80;99.90
16655;DHT22;8441;51.344;7.022;2022-08-01T02:27:04;18.80;99.90
16655;DHT22;8441;51.344;7.022;2022-08-01T02:29:39;18.80;99.90
16655;DHT22;8441;51.344;7.022;2022-08-01T02:32:11;18.80;99.90
16655;DHT22;8441;51.344;7.022;2022-08-01T02:34:41;18.70;99.90
16655;DHT22;8441;51.344;7.022;2022-08-01T02:37:10;18.70;99.90
16655;DHT22;8441;51.344;7.022;2022-08-01T02:39:38;18.80;99.90
16655;DHT22;8441;51.344;7.022;2022-08-01T02:42:08;18.80;99.90
16655;DHT22;8441;51.344;7.022;2022-08-01T02:44:39;18.70;99.90
16655;DHT22;8441;51.344;7.022;2022-08-01T02:47:10;18.70;99.90
16655;DHT22;8441;51.344;7.022;2022-08-01T02:49:41;18.80;99.90
16655;DHT22;8441;51.344;7.022;2022-08-01T02:52:13;18.80;99.90
16655;DHT22;8441;51.344;7.022;2022-08-01T02:54:42;18.70;99.90
16655;DHT22;8441;51.344;7.022;2022-08-01T02:57:11;18.70;99.90
16655;DHT22;8441;51.344;7.022;2022-08-01T02:59:39;18.80;99.90
16655;DHT22;8441;51.344;7.022;2022-08-01T03:02:08;18.80;99.90
16655;DHT22;8441;51.344;7.022;2022-08-01T03:04:38;18.70;99.90
16655;DHT22;8441;51.344;7.022;2022-08-01T03:07:07;18.80;99.90
16655;DHT22;8441;51.344;7.022;2022-08-01T03:09:38;18.70;99.90
16655;DHT22;8441;51.344;7.022;2022-08-01T03:12:10;18.70;99.90
16655;DHT22;8441;51.344;7.022;2022-08-01T03:14:39;18.70;99.90
16655;DHT22;8441;51.344;7.022;2022-08-01T03:17:07;18.70;99.90
16655;DHT22;8441;51.344;7.022;2022-08-01T03:19:37;18.70;99.90
16655;DHT22;8441;51.344;7.022;2022-08-01T03:22:06;18.70;99.90
16655;DHT22;8441;51.344;7.022;2022-08-01T03:24:34;18.70;99.90
16655;DHT22;8441;51.344;7.022;2022-08-01T03:27:04;18.80;99.90
16655;DHT22;8441;51.344;7.022;2022-08-01T03:29:33;18.70;99.90
16655;DHT22;8441;51.344;7.022;2022-08-01T03:32:01;18.80;99.90
16655;DHT22;8441;51.344;7.022;2022-08-01T03:34:29;18.70;99.90
16655;DHT22;8441;51.344;7.022;2022-08-01T03:37:02;18.70;99.90
16655;DHT22;8441;51.344;7.022;2022-08-01T03:39:34;18.70;99.90
16655;DHT22;8441;51.344;7.022;2022-08-01T03:42:07;18.70;99.90
16655;DHT22;8441;51.344;7.022;2022-08-01T03:44:36;18.70;99.90
16655;DHT22;8441;51.344;7.022;2022-08-01T03:47:08;18.70;99.90
16655;DHT22;8441;51.344;7.022;2022-08-01T03:49:41;18.70;99.90
16655;DHT22;8441;51.344;7.022;2022-08-01T03:52:11;18.70;99.90
16655;DHT22;8441;51.344;7.022;2022-08-01T03:54:43;18.70;99.90
16655;DHT22;8441;51.344;7.022;2022-08-01T03:57:12;18.70;99.90
16655;DHT22;8441;51.344;7.022;2022-08-01T03:59:40;18.70;99.90
16655;DHT22;8441;51.344;7.022;2022-08-01T04:02:08;18.70;99.90
16655;DHT22;8441;51.344;7.022;2022-08-01T04:04:35;18.70;99.90
16655;DHT22;8441;51.344;7.022;2022-08-01T04:07:02;18.60;99.90
16655;DHT22;8441;51.344;7.022;2022-08-01T04:09:33;18.60;99.90
16655;DHT22;8441;51.344;7.022;2022-08-01T04:12:01;18.60;99.90
16655;DHT22;8441;51.344;7.022;2022-08-01T04:14:28;18.60;99.90
16655;DHT22;8441;51.344;7.022;2022-08-01T04:16:55;18.60;99.90
16655;DHT22;8441;51.344;7.022;2022-08-01T04:19:22;18.60;99.90
16655;DHT22;8441;51.344;7.022;2022-08-01T04:21:50;18.60;99.90
16655;DHT22;8441;51.344;7.022;2022-08-01T04:24:18;18.70;99.90
16655;DHT22;8441;51.344;7.022;2022-08-01T04:26:49;18.70;99.90
16655;DHT22;8441;51.344;7.022;2022-08-01T04:29:18;18.70;99.90
16655;DHT22;8441;51.344;7.022;2022-08-01T04:31:48;18.70;99.90
16655;DHT22;8441;51.344;7.022;2022-08-01T04:34:19;18.70;99.90
16655;DHT22;8441;51.344;7.022;2022-08-01T04:36:48;18.70;99.90
16655;DHT22;8441;51.344;7.022;2022-08-01T04:39:17;18.80;99.90
16655;DHT22;8441;51.344;7.022;2022-08-01T04:41:47;18.80;99.90
16655;DHT22;8441;51.344;7.022;2022-08-01T04:44:14;18.70;99.90
16655;DHT22;8441;51.344;7.022;2022-08-01T04:46:42;18.80;99.90
16655;DHT22;8441;51.344;7.022;2022-08-01T04:49:11;18.80;99.90
16655;DHT22;8441;51.344;7.022;2022-08-01T04:51:50;18.90;99.90
16655;DHT22;8441;51.344;7.022;2022-08-01T04:54:18;19.00;99.90
16655;DHT22;8441;51.344;7.022;2022-08-01T04:56:48;19.10;99.90
16655;DHT22;8441;51.344;7.022;2022-08-01T04:59:15;18.90;99.90
16655;DHT22;8441;51.344;7.022;2022-08-01T05:01:59;18.90;99.90
16655;DHT22;8441;51.344;7.022;2022-08-01T05:04:26;18.90;99.90
16655;DHT22;8441;51.344;7.022;2022-08-01T05:06:53;18.90;99.90
16655;DHT22;8441;51.344;7.022;2022-08-01T05:09:21;19.00;99.90
16655;DHT22;8441;51.344;7.022;2022-08-01T05:11:49;19.00;99.90
16655;DHT22;8441;51.344;7.022;2022-08-01T05:14:16;19.00;99.90
16655;DHT22;8441;51.344;7.022;2022-08-01T05:16:44;19.00;99.90
16655;DHT22;8441;51.344;7.022;2022-08-01T05:19:11;19.00;99.90
16655;DHT22;8441;51.344;7.022;2022-08-01T05:21:38;19.00;99.90
16655;DHT22;8441;51.344;7.022;2022-08-01T05:24:06;19.00;99.90
16655;DHT22;8441;51.344;7.022;2022-08-01T05:26:33;18.90;99.90
16655;DHT22;8441;51.344;7.022;2022-08-01T05:29:01;18.90;99.90
16655;DHT22;8441;51.344;7.022;2022-08-01T05:31:28;19.00;99.90
16655;DHT22;8441;51.344;7.022;2022-08-01T05:33:55;19.00;99.90
16655;DHT22;8441;51.344;7.022;2022-08-01T05:36:22;18.90;99.90
16655;DHT22;8441;51.344;7.022;2022-08-01T05:38:49;19.00;99.90
16655;DHT22;8441;51.344;7.022;2022-08-01T05:41:16;19.00;99.90
16655;DHT22;8441;51.344;7.022;2022-08-01T05:43:43;19.00;99.90
16655;DHT22;8441;51.344;7.022;2022-08-01T05:46:12;19.10;99.90
16655;DHT22;8441;51.344;7.022;2022-08-01T05:48:39;19.10;99.90
16655;DHT22;8441;51.344;7.022;2022-08-01T05:51:06;19.10;99.90
16655;DHT22;8441;51.344;7.022;2022-08-01T05:53:33;19.20;99.90
16655;DHT22;8441;51.344;7.022;2022-08-01T05:56:00;19.20;99.90
16655;DHT22;8441;51.344;7.022;2022-08-01T05:58:27;19.20;99.90
16655;DHT22;8441;51.344;7.022;2022-08-01T06:00:55;19.20;99.90
16655;DHT22;8441;51.344;7.022;2022-08-01T06:03:23;19.20;99.90
16655;DHT22;8441;51.344;7.022;2022-08-01T06:05:51;19.30;99.90
16655;DHT22;8441;51.344;7.022;2022-08-01T06:08:18;19.40;99.90
16655;DHT22;8441;51.344;7.022;2022-08-01T06:10:45;19.50;99.90
16655;DHT22;8441;51.344;7.022;2022-08-01T06:13:12;19.50;99.90
16655;DHT22;8441;51.344;7.022;2022-08-01T06:15:40;19.80;99.90
16655;DHT22;8441;51.344;7.022;2022-08-01T06:18:07;19.90;99.90
16655;DHT22;8441;51.344;7.022;2022-08-01T06:20:35;20.00;99.90
16655;DHT22;8441;51.344;7.022;2022-08-01T06:23:02;20.00;99.90
16655;DHT22;8441;51.344;7.022;2022-08-01T06:25:30;19.90;99.90
16655;DHT22;8441;51.344;7.022;2022-08-01T06:27:57;19.80;99.90
16655;DHT22;8441;51.344;7.022;2022-08-01T06:30:24;19.60;99.90
16655;DHT22;8441;51.344;7.022;2022-08-01T06:32:52;19.50;99.90
16655;DHT22;8441;51.344;7.022;2022-08-01T06:35:21;19.50;99.90
16655;DHT22;8441;51.344;7.022;2022-08-01T06:37:50;19.40;99.90
16655;DHT22;8441;51.344;7.022;2022-08-01T06:40:17;19.50;99.90
16655;DHT22;8441;51.344;7.022;2022-08-01T06:42:44;19.60;99.90
16655;DHT22;8441;51.344;7.022;2022-08-01T06:45:13;19.80;99.90
16655;DHT22;8441;51.344;7.022;2022-08-01T06:47:42;20.00;99.90
16655;DHT22;8441;51.344;7.022;2022-08-01T06:50:10;19.90;99.90
16655;DHT22;8441;51.344;7.022;2022-08-01T06:52:39;19.90;99.90
16655;DHT22;8441;51.344;7.022;2022-08-01T06:55:09;20.00;99.90
16655;DHT22;8441;51.344;7.022;2022-08-01T06:57:36;20.20;99.90
16655;DHT22;8441;51.344;7.022;2022-08-01T07:00:05;20.30;99.90
16655;DHT22;8441;51.344;7.022;2022-08-01T07:02:36;20.50;99.90
16655;DHT22;8441;51.344;7.022;2022-08-01T07:05:03;20.60;99.90
16655;DHT22;8441;51.344;7.022;2022-08-01T07:07:30;20.50;99.90
16655;DHT22;8441;51.344;7.022;2022-08-01T07:09:58;20.50;99.90
16655;DHT22;8441;51.344;7.022;2022-08-01T07:12:26;20.60;99.90
16655;DHT22;8441;51.344;7.022;2022-08-01T07:14:53;20.70;99.90
16655;DHT22;8441;51.344;7.022;2022-08-01T07:17:22;20.90;99.90
16655;DHT22;8441;51.344;7.022;2022-08-01T07:19:49;20.70;99.90
16655;DHT22;8441;51.344;7.022;2022-08-01T07:22:16;20.50;99.90
16655;DHT22;8441;51.344;7.022;2022-08-01T07:24:43;20.30;99.90
16655;DHT22;8441;51.344;7.022;2022-08-01T07:27:10;20.10;99.90
16655;DHT22;8441;51.344;7.022;2022-08-01T07:29:39;20.10;99.90
16655;DHT22;8441;51.344;7.022;2022-08-01T07:32:06;20.00;99.90
16655;DHT22;8441;51.344;7.022;2022-08-01T07:34:33;20.00;99.90
16655;DHT22;8441;51.344;7.022;2022-08-01T07:37:00;20.10;99.90
16655;DHT22;8441;51.344;7.022;2022-08-01T07:39:27;20.10;99.90
16655;DHT22;8441;51.344;7.022;2022-08-01T07:41:54;20.20;99.90
16655;DHT22;8441;51.344;7.022;2022-08-01T07:44:21;20.30;99.90
16655;DHT22;8441;51.344;7.022;2022-08-01T07:46:49;20.40;99.90
16655;DHT22;8441;51.344;7.022;2022-08-01T07:49:16;20.50;99.90
16655;DHT22;8441;51.344;7.022;2022-08-01T07:51:43;20.60;99.90
16655;DHT22;8441;51.344;7.022;2022-08-01T07:54:10;20.50;99.90
16655;DHT22;8441;51.344;7.022;2022-08-01T07:56:37;20.40;99.90
16655;DHT22;8441;51.344;7.022;2022-08-01T07:59:04;20.60;99.90
16655;DHT22;8441;51.344;7.022;2022-08-01T08:01:31;20.80;99.90
16655;DHT22;8441;51.344;7.022;2022-08-01T08:04:00;20.80;99.90
16655;DHT22;8441;51.344;7.022;2022-08-01T08:06:27;21.20;99.90
16655;DHT22;8441;51.344;7.022;2022-08-01T08:08:55;21.30;99.90
16655;DHT22;8441;51.344;7.022;2022-08-01T08:11:22;21.30;99.90
16655;DHT22;8441;51.344;7.022;2022-08-01T08:13:49;21.30;99.90
16655;DHT22;8441;51.344;7.022;2022-08-01T08:16:16;21.40;99.90
16655;DHT22;8441;51.344;7.022;2022-08-01T08:18:43;21.50;99.90
16655;DHT22;8441;51.344;7.022;2022-08-01T08:21:11;21.80;99.90
16655;DHT22;8441;51.344;7.022;2022-08-01T08:23:41;22.20;99.90
16655;DHT22;8441;51.344;7.022;2022-08-01T08:26:26;22.20;99.90
16655;DHT22;8441;51.344;7.022;2022-08-01T08:28:53;22.40;99.90
16655;DHT22;8441;51.344;7.022;2022-08-01T08:31:20;22.40;99.90
16655;DHT22;8441;51.344;7.022;2022-08-01T08:33:47;22.50;99.90
16655;DHT22;8441;51.344;7.022;2022-08-01T08:36:15;22.40;99.90
16655;DHT22;8441;51.344;7.022;2022-08-01T08:38:42;22.60;99.90
16655;DHT22;8441;51.344;7.022;2022-08-01T08:41:09;22.80;99.90
16655;DHT22;8441;51.344;7.022;2022-08-01T08:43:38;22.60;99.90
16655;DHT22;8441;51.344;7.022;2022-08-01T08:46:08;22.40;99.90
16655;DHT22;8441;51.344;7.022;2022-08-01T08:48:36;22.30;99.90
16655;DHT22;8441;51.344;7.022;2022-08-01T08:51:04;22.20;99.90
16655;DHT22;8441;51.344;7.022;2022-08-01T08:53:33;22.20;99.90
16655;DHT22;8441;51.344;7.022;2022-08-01T08:56:02;22.40;99.90
16655;DHT22;8441;51.344;7.022;2022-08-01T08:58:31;22.80;99.90
16655;DHT22;8441;51.344;7.022;2022-08-01T09:01:05;22.90;99.90
16655;DHT22;8441;51.344;7.022;2022-08-01T09:03:33;23.10;99.90
16655;DHT22;8441;51.344;7.022;2022-08-01T09:06:00;22.80;99.90
16655;DHT22;8441;51.344;7.022;2022-08-01T09:08:27;22.60;99.90
16655;DHT22;8441;51.344;7.022;2022-08-01T09:10:55;22.30;99.90
16655;DHT22;8441;51.344;7.022;2022-08-01T09:13:22;22.30;99.90
16655;DHT22;8441;51.344;7.022;2022-08-01T09:15:51;22.50;99.90
16655;DHT22;8441;51.344;7.022;2022-08-01T09:18:27;22.80;99.90
16655;DHT22;8441;51.344;7.022;2022-08-01T09:21:15;23.10;99.90
16655;DHT22;8441;51.344;7.022;2022-08-01T09:23:45;23.10;99.90
16655;DHT22;8441;51.344;7.022;2022-08-01T09:26:15;22.90;99.90
16655;DHT22;8441;51.344;7.022;2022-08-01T09:28:44;22.70;99.90
16655;DHT22;8441;51.344;7.022;2022-08-01T09:31:12;22.60;99.90
16655;DHT22;8441;51.344;7.022;2022-08-01T09:33:50;22.60;99.90
16655;DHT22;8441;51.344;7.022;2022-08-01T09:36:19;22.90;99.90
16655;DHT22;8441;51.344;7.022;2022-08-01T09:38:46;23.30;99.90
16655;DHT22;8441;51.344;7.022;2022-08-01T09:41:14;23.60;99.90
16655;DHT22;8441;51.344;7.022;2022-08-01T09:43:48;23.90;99.90
16655;DHT22;8441;51.344;7.022;2022-08-01T09:46:16;23.90;99.90
16655;DHT22;8441;51.344;7.022;2022-08-01T09:48:59;24.00;99.90
16655;DHT22;8441;51.344;7.022;2022-08-01T09:51:31;23.90;99.90
16655;DHT22;8441;51.344;7.022;2022-08-01T09:53:59;24.10;99.90
16655;DHT22;8441;51.344;7.022;2022-08-01T09:56:36;24.20;99.90
16655;DHT22;8441;51.344;7.022;2022-08-01T09:59:03;24.20;99.90
16655;DHT22;8441;51.344;7.022;2022-08-01T10:01:43;24.10;99.90
16655;DHT22;8441;51.344;7.022;2022-08-01T10:04:13;24.20;99.90
16655;DHT22;8441;51.344;7.022;2022-08-01T10:06:41;24.00;99.90
16655;DHT22;8441;51.344;7.022;2022-08-01T10:09:11;23.90;99.90
16655;DHT22;8441;51.344;7.022;2022-08-01T10:11:41;23.80;99.90
16655;DHT22;8441;51.344;7.022;2022-08-01T10:14:08;23.70;99.90
16655;DHT22;8441;51.344;7.022;2022-08-01T10:16:36;23.60;99.90
16655;DHT22;8441;51.344;7.022;2022-08-01T10:19:06;23.20;99.90
16655;DHT22;8441;51.344;7.022;2022-08-01T10:21:33;23.30;99.90
16655;DHT22;8441;51.344;7.022;2022-08-01T10:24:03;23.20;99.90
16655;DHT22;8441;51.344;7.022;2022-08-01T10:26:33;23.20;99.90
16655;DHT22;8441;51.344;7.022;2022-08-01T10:29:03;23.00;99.90
16655;DHT22;8441;51.344;7.022;2022-08-01T10:31:32;22.80;99.90
16655;DHT22;8441;51.344;7.022;2022-08-01T10:34:00;22.60;99.90
16655;DHT22;8441;51.344;7.022;2022-08-01T10:36:28;22.60;99.90
16655;DHT22;8441;51.344;7.022;2022-08-01T10:38:55;22.70;99.90
16655;DHT22;8441;51.344;7.022;2022-08-01T10:41:24;22.80;99.90
16655;DHT22;8441;51.344;7.022;2022-08-01T10:43:52;23.20;99.90
16655;DHT22;8441;51.344;7.022;2022-08-01T10:46:21;23.60;99.90
16655;DHT22;8441;51.344;7.022;2022-08-01T10:48:54;23.80;99.90
16655;DHT22;8441;51.344;7.022;2022-08-01T10:51:23;24.20;99.90
16655;DHT22;8441;51.344;7.022;2022-08-01T10:53:51;24.60;99.90
16655;DHT22;8441;51.344;7.022;2022-08-01T10:56:19;24.90;99.90
16655;DHT22;8441;51.344;7.022;2022-08-01T10:58:48;25.10;99.90
16655;DHT22;8441;51.344;7.022;2022-08-01T11:01:18;25.30;99.90
16655;DHT22;8441;51.344;7.022;2022-08-01T11:04:02;25.10;99.90
16655;DHT22;8441;51.344;7.022;2022-08-01T11:06:40;24.90;99.90
16655;DHT22;8441;51.344;7.022;2022-08-01T11:09:23;24.90;99.90
16655;DHT22;8441;51.344;7.022;2022-08-01T11:12:01;24.90;99.90
16655;DHT22;8441;51.344;7.022;2022-08-01T11:14:31;25.10;99.90
16655;DHT22;8441;51.344;7.022;2022-08-01T11:17:31;25.10;99.90
16655;DHT22;8441;51.344;7.022;2022-08-01T11:20:12;25.00;99.90
16655;DHT22;8441;51.344;7.022;2022-08-01T11:26:20;25.30;99.90
16655;DHT22;8441;51.344;7.022;2022-08-01T11:29:12;25.60;99.90
16655;DHT22;8441;51.344;7.022;2022-08-01T11:31:40;25.60;99.90
16655;DHT22;8441;51.344;7.022;2022-08-01T11:34:07;25.40;99.90
16655;DHT22;8441;51.344;7.022;2022-08-01T11:36:36;25.20;99.90
16655;DHT22;8441;51.344;7.022;2022-08-01T11:39:16;25.00;99.90
16655;DHT22;8441;51.344;7.022;2022-08-01T11:41:46;24.70;99.90
16655;DHT22;8441;51.344;7.022;2022-08-01T11:44:15;25.00;99.90
16655;DHT22;8441;51.344;7.022;2022-08-01T11:46:51;25.40;99.90
16655;DHT22;8441;51.344;7.022;2022-08-01T11:49:46;25.40;99.90
16655;DHT22;8441;51.344;7.022;2022-08-01T11:52:19;25.30;99.90
16655;DHT22;8441;51.344;7.022;2022-08-01T11:54:51;24.90;99.90
16655;DHT22;8441;51.344;7.022;2022-08-01T11:57:21;24.60;99.90
16655;DHT22;8441;51.344;7.022;2022-08-01T11:59:50;24.10;99.90
16655;DHT22;8441;51.344;7.022;2022-08-01T12:02:22;24.10;99.90
16655;DHT22;8441;51.344;7.022;2022-08-01T12:04:52;24.10;99.90
16655;DHT22;8441;51.344;7.022;2022-08-01T12:07:22;24.10;99.90
16655;DHT22;8441;51.344;7.022;2022-08-01T12:09:57;24.00;99.90
16655;DHT22;8441;51.344;7.022;2022-08-01T12:12:26;24.00;99.90
16655;DHT22;8441;51.344;7.022;2022-08-01T12:14:54;23.90;99.90
16655;DHT22;8441;51.344;7.022;2022-08-01T12:17:28;23.90;99.90
16655;DHT22;8441;51.344;7.022;2022-08-01T12:19:56;24.00;99.90
16655;DHT22;8441;51.344;7.022;2022-08-01T12:22:24;24.00;99.90
16655;DHT22;8441;51.344;7.022;2022-08-01T12:24:55;24.40;99.90
16655;DHT22;8441;51.344;7.022;2022-08-01T12:27:27;24.60;99.90
16655;DHT22;8441;51.344;7.022;2022-08-01T12:29:55;24.80;99.90
16655;DHT22;8441;51.344;7.022;2022-08-01T12:32:25;24.70;99.90
16655;DHT22;8441;51.344;7.022;2022-08-01T12:34:54;25.00;99.90
16655;DHT22;8441;51.344;7.022;2022-08-01T12:37:23;25.30;99.90
16655;DHT22;8441;51.344;7.022;2022-08-01T12:39:50;25.40;99.90
16655;DHT22;8441;51.344;7.022;2022-08-01T12:42:17;25.60;99.90
16655;DHT22;8441;51.344;7.022;2022-08-01T12:44:45;25.90;99.90
16655;DHT22;8441;51.344;7.022;2022-08-01T12:47:15;26.20;99.90
16655;DHT22;8441;51.344;7.022;2022-08-01T12:49:43;26.50;99.90
16655;DHT22;8441;51.344;7.022;2022-08-01T12:52:12;26.80;99.90
16655;DHT22;8441;51.344;7.022;2022-08-01T12:55:04;26.40;99.90
16655;DHT22;8441;51.344;7.022;2022-08-01T12:57:32;25.80;99.90
16655;DHT22;8441;51.344;7.022;2022-08-01T13:00:11;25.70;99.90
16655;DHT22;8441;51.344;7.022;2022-08-01T13:02:39;25.60;99.90
16655;DHT22;8441;51.344;7.022;2022-08-01T13:05:07;25.70;99.90
16655;DHT22;8441;51.344;7.022;2022-08-01T13:07:42;25.70;99.90
16655;DHT22;8441;51.344;7.022;2022-08-01T13:10:12;25.30;99.90
16655;DHT22;8441;51.344;7.022;2022-08-01T13:12:39;25.30;99.90
16655;DHT22;8441;51.344;7.022;2022-08-01T13:15:17;25.60;99.90
16655;DHT22;8441;51.344;7.022;2022-08-01T13:17:45;25.30;99.90
16655;DHT22;8441;51.344;7.022;2022-08-01T13:20:22;25.30;99.90
16655;DHT22;8441;51.344;7.022;2022-08-01T13:22:49;25.30;99.90
16655;DHT22;8441;51.344;7.022;2022-08-01T13:25:19;25.40;99.90
16655;DHT22;8441;51.344;7.022;2022-08-01T13:27:46;25.40;99.90
16655;DHT22;8441;51.344;7.022;2022-08-01T13:30:14;25.70;99.90
16655;DHT22;8441;51.344;7.022;2022-08-01T13:32:42;25.40;99.90
16655;DHT22;8441;51.344;7.022;2022-08-01T13:35:11;25.30;99.90
16655;DHT22;8441;51.344;7.022;2022-08-01T13:37:40;25.40;99.90
16655;DHT22;8441;51.344;7.022;2022-08-01T13:40:09;25.50;99.90
16655;DHT22;8441;51.344;7.022;2022-08-01T13:42:38;25.60;99.90
16655;DHT22;8441;51.344;7.022;2022-08-01T13:45:07;25.60;99.90
16655;DHT22;8441;51.344;7.022;2022-08-01T13:47:36;25.90;99.90
16655;DHT22;8441;51.344;7.022;2022-08-01T13:50:05;26.30;99.90
16655;DHT22;8441;51.344;7.022;2022-08-01T13:52:32;26.20;99.90
16655;DHT22;8441;51.344;7.022;2022-08-01T13:54:59;25.40;99.90
16655;DHT22;8441;51.344;7.022;2022-08-01T13:57:27;25.00;99.90
16655;DHT22;8441;51.344;7.022;2022-08-01T13:59:55;25.10;99.90
16655;DHT22;8441;51.344;7.022;2022-08-01T14:02:25;24.60;99.90
16655;DHT22;8441;51.344;7.022;2022-08-01T14:04:52;24.50;99.90
16655;DHT22;8441;51.344;7.022;2022-08-01T14:07:20;24.40;99.90
16655;DHT22;8441;51.344;7.022;2022-08-01T14:09:47;24.30;99.90
16655;DHT22;8441;51.344;7.022;2022-08-01T14:12:14;24.40;99.90
16655;DHT22;8441;51.344;7.022;2022-08-01T14:14:41;24.60;99.90
16655;DHT22;8441;51.344;7.022;2022-08-01T14:17:09;24.70;99.90
16655;DHT22;8441;51.344;7.022;2022-08-01T14:19:36;24.70;99.90
16655;DHT22;8441;51.344;7.022;2022-08-01T14:22:03;24.80;99.90
16655;DHT22;8441;51.344;7.022;2022-08-01T14:24:30;24.30;99.90
16655;DHT22;8441;51.344;7.022;2022-08-01T14:26:57;24.10;99.90
16655;DHT22;8441;51.344;7.022;2022-08-01T14:29:24;24.30;99.90
16655;DHT22;8441;51.344;7.022;2022-08-01T14:31:51;24.60;99.90
16655;DHT22;8441;51.344;7.022;2022-08-01T14:34:20;24.80;99.90
16655;DHT22;8441;51.344;7.022;2022-08-01T14:36:47;25.00;99.90
16655;DHT22;8441;51.344;7.022;2022-08-01T14:39:14;25.10;99.90
16655;DHT22;8441;51.344;7.022;2022-08-01T14:41:41;25.10;99.90
16655;DHT22;8441;51.344;7.022;2022-08-01T14:44:08;24.60;99.90
16655;DHT22;8441;51.344;7.022;2022-08-01T14:46:35;24.70;99.90
16655;DHT22;8441;51.344;7.022;2022-08-01T14:49:02;25.00;99.90
16655;DHT22;8441;51.344;7.022;2022-08-01T14:51:31;25.10;99.90
16655;DHT22;8441;51.344;7.022;2022-08-01T14:54:00;25.30;99.90
16655;DHT22;8441;51.344;7.022;2022-08-01T14:56:27;25.10;99.90
16655;DHT22;8441;51.344;7.022;2022-08-01T14:58:54;25.10;99.90
16655;DHT22;8441;51.344;7.022;2022-08-01T15:01:21;25.20;99.90
16655;DHT22;8441;51.344;7.022;2022-08-01T15:03:48;25.20;99.90
16655;DHT22;8441;51.344;7.022;2022-08-01T15:06:16;25.20;99.90
16655;DHT22;8441;51.344;7.022;2022-08-01T15:08:45;25.40;99.90
16655;DHT22;8441;51.344;7.022;2022-08-01T15:11:12;25.40;99.90
16655;DHT22;8441;51.344;7.022;2022-08-01T15:13:39;25.50;99.90
16655;DHT22;8441;51.344;7.022;2022-08-01T15:16:06;25.10;99.90
16655;DHT22;8441;51.344;7.022;2022-08-01T15:18:33;24.80;99.90
16655;DHT22;8441;51.344;7.022;2022-08-01T15:21:00;24.80;99.90
16655;DHT22;8441;51.344;7.022;2022-08-01T15:23:27;24.80;99.90
16655;DHT22;8441;51.344;7.022;2022-08-01T15:25:55;24.90;99.90
16655;DHT22;8441;51.344;7.022;2022-08-01T15:28:23;24.70;99.90
16655;DHT22;8441;51.344;7.022;2022-08-01T15:30:50;24.90;99.90
16655;DHT22;8441;51.344;7.022;2022-08-01T15:33:17;24.90;99.90
16655;DHT22;8441;51.344;7.022;2022-08-01T15:35:44;25.10;99.90
16655;DHT22;8441;51.344;7.022;2022-08-01T15:38:11;25.00;99.90
16655;DHT22;8441;51.344;7.022;2022-08-01T15:40:38;25.10;99.90
16655;DHT22;8441;51.344;7.022;2022-08-01T15:43:07;25.20;99.90
16655;DHT22;8441;51.344;7.022;2022-08-01T15:45:34;25.30;99.90
16655;DHT22;8441;51.344;7.022;2022-08-01T15:48:02;25.40;99.90
16655;DHT22;8441;51.344;7.022;2022-08-01T15:50:29;25.50;99.90
16655;DHT22;8441;51.344;7.022;2022-08-01T15:52:56;25.70;99.90
16655;DHT22;8441;51.344;7.022;2022-08-01T15:55:22;25.30;99.90
16655;DHT22;8441;51.344;7.022;2022-08-01T15:57:50;24.90;99.90
16655;DHT22;8441;51.344;7.022;2022-08-01T16:00:18;24.90;99.90
16655;DHT22;8441;51.344;7.022;2022-08-01T16:02:46;24.80;99.90
16655;DHT22;8441;51.344;7.022;2022-08-01T16:05:13;24.80;99.90